sensor_id;sensor_type;location;lat;lon;timestamp;P1;durP1;ratioP1;P2;durP2;ratioP2
53391;SDS011;41667;51.922;8.850;2023-04-15T00:01:22;7.43;;;5.35;;
53391;SDS011;41667;51.922;8.850;2023-04-15T00:03:49;10.50;;;5.40;;
53391;SDS011;41667;51.922;8.850;2023-04-15T00:06:14;8.23;;;5.32;;
53391;SDS011;41667;51.922;8.850;2023-04-15T00:08:40;10.63;;;6.10;;
53391;SDS011;41667;51.922;8.850;2023-04-15T00:11:05;8.75;;;5.57;;
53391;SDS011;41667;51.922;8.850;2023-04-15T00:13:31;7.90;;;5.70;;
53391;SDS011;41667;51.922;8.850;2023-04-15T00:15:57;10.38;;;5.63;;
53391;SDS011;41667;51.922;8.850;2023-04-15T00:18:23;6.80;;;5.33;;
53391;SDS011;41667;51.922;8.850;2023-04-15T00:20:48;7.25;;;4.60;;
53391;SDS011;41667;51.922;8.850;2023-04-15T00:23:13;10.02;;;5.10;;
53391;SDS011;41667;51.922;8.850;2023-04-15T00:25:39;7.30;;;4.43;;
53391;SDS011;41667;51.922;8.850;2023-04-15T00:28:04;7.50;;;5.38;;
53391;SDS011;41667;51.922;8.850;2023-04-15T00:30:29;6.47;;;4.40;;
53391;SDS011;41667;51.922;8.850;2023-04-15T00:32:55;12.40;;;4.35;;
53391;SDS011;41667;51.922;8.850;2023-04-15T00:35:20;6.25;;;3.88;;
53391;SDS011;41667;51.922;8.850;2023-04-15T00:37:45;5.13;;;3.45;;
53391;SDS011;41667;51.922;8.850;2023-04-15T00:40:11;6.13;;;4.03;;
53391;SDS011;41667;51.922;8.850;2023-04-15T00:42:36;5.25;;;3.35;;
53391;SDS011;41667;51.922;8.850;2023-04-15T00:45:02;6.15;;;3.33;;
53391;SDS011;41667;51.922;8.850;2023-04-15T00:47:27;4.37;;;3.87;;
53391;SDS011;41667;51.922;8.850;2023-04-15T00:49:53;5.57;;;3.70;;
53391;SDS011;41667;51.922;8.850;2023-04-15T00:52:18;4.53;;;3.08;;
53391;SDS011;41667;51.922;8.850;2023-04-15T00:54:43;3.42;;;3.08;;
53391;SDS011;41667;51.922;8.850;2023-04-15T00:57:08;6.17;;;3.43;;
53391;SDS011;41667;51.922;8.850;2023-04-15T00:59:34;5.85;;;2.92;;
53391;SDS011;41667;51.922;8.850;2023-04-15T01:01:59;4.38;;;3.20;;
53391;SDS011;41667;51.922;8.850;2023-04-15T01:04:25;4.35;;;3.47;;
53391;SDS011;41667;51.922;8.850;2023-04-15T01:06:50;4.90;;;3.40;;
53391;SDS011;41667;51.922;8.850;2023-04-15T01:09:16;5.63;;;3.78;;
53391;SDS011;41667;51.922;8.850;2023-04-15T01:11:41;9.18;;;3.88;;
53391;SDS011;41667;51.922;8.850;2023-04-15T01:14:07;5.18;;;2.70;;
53391;SDS011;41667;51.922;8.850;2023-04-15T01:16:32;3.38;;;3.08;;
53391;SDS011;41667;51.922;8.850;2023-04-15T01:18:58;4.90;;;2.90;;
53391;SDS011;41667;51.922;8.850;2023-04-15T01:21:23;6.07;;;3.27;;
53391;SDS011;41667;51.922;8.850;2023-04-15T01:23:48;3.92;;;2.97;;
53391;SDS011;41667;51.922;8.850;2023-04-15T01:26:14;8.00;;;2.70;;
53391;SDS011;41667;51.922;8.850;2023-04-15T01:28:40;5.70;;;3.40;;
53391;SDS011;41667;51.922;8.850;2023-04-15T01:31:09;3.13;;;2.80;;
53391;SDS011;41667;51.922;8.850;2023-04-15T01:33:35;5.32;;;3.78;;
53391;SDS011;41667;51.922;8.850;2023-04-15T01:36:00;10.13;;;4.10;;
53391;SDS011;41667;51.922;8.850;2023-04-15T01:38:26;4.82;;;4.30;;
53391;SDS011;41667;51.922;8.850;2023-04-15T01:40:52;8.55;;;4.55;;
53391;SDS011;41667;51.922;8.850;2023-04-15T01:43:17;7.97;;;4.43;;
53391;SDS011;41667;51.922;8.850;2023-04-15T01:45:42;6.38;;;4.88;;
53391;SDS011;41667;51.922;8.850;2023-04-15T01:48:08;7.28;;;5.03;;
53391;SDS011;41667;51.922;8.850;2023-04-15T01:50:33;7.88;;;5.80;;
53391;SDS011;41667;51.922;8.850;2023-04-15T01:53:00;11.10;;;6.95;;
53391;SDS011;41667;51.922;8.850;2023-04-15T01:55:25;8.68;;;5.80;;
53391;SDS011;41667;51.922;8.850;2023-04-15T01:57:51;9.00;;;6.10;;
53391;SDS011;41667;51.922;8.850;2023-04-15T02:00:16;9.82;;;6.28;;
53391;SDS011;41667;51.922;8.850;2023-04-15T02:02:41;11.38;;;5.88;;
53391;SDS011;41667;51.922;8.850;2023-04-15T02:05:06;10.90;;;7.07;;
53391;SDS011;41667;51.922;8.850;2023-04-15T02:07:32;8.93;;;6.30;;
53391;SDS011;41667;51.922;8.850;2023-04-15T02:09:57;9.67;;;6.60;;
53391;SDS011;41667;51.922;8.850;2023-04-15T02:12:22;12.07;;;6.30;;
53391;SDS011;41667;51.922;8.850;2023-04-15T02:14:47;8.70;;;6.50;;
53391;SDS011;41667;51.922;8.850;2023-04-15T02:17:12;12.48;;;7.20;;
53391;SDS011;41667;51.922;8.850;2023-04-15T02:19:37;10.85;;;7.18;;
53391;SDS011;41667;51.922;8.850;2023-04-15T02:22:04;11.77;;;7.53;;
53391;SDS011;41667;51.922;8.850;2023-04-15T02:24:31;9.43;;;6.68;;
53391;SDS011;41667;51.922;8.850;2023-04-15T02:26:56;8.30;;;6.72;;
53391;SDS011;41667;51.922;8.850;2023-04-15T02:29:21;9.27;;;7.00;;
53391;SDS011;41667;51.922;8.850;2023-04-15T02:31:47;7.60;;;6.00;;
53391;SDS011;41667;51.922;8.850;2023-04-15T02:34:12;11.05;;;6.38;;
53391;SDS011;41667;51.922;8.850;2023-04-15T02:36:38;9.48;;;6.40;;
53391;SDS011;41667;51.922;8.850;2023-04-15T02:39:04;10.65;;;6.63;;
53391;SDS011;41667;51.922;8.850;2023-04-15T02:41:29;7.80;;;6.22;;
53391;SDS011;41667;51.922;8.850;2023-04-15T02:43:54;9.57;;;7.13;;
53391;SDS011;41667;51.922;8.850;2023-04-15T02:46:20;10.50;;;7.05;;
53391;SDS011;41667;51.922;8.850;2023-04-15T02:48:46;9.05;;;6.97;;
53391;SDS011;41667;51.922;8.850;2023-04-15T02:51:15;13.80;;;7.15;;
53391;SDS011;41667;51.922;8.850;2023-04-15T02:53:41;9.02;;;6.80;;
53391;SDS011;41667;51.922;8.850;2023-04-15T02:56:06;12.65;;;8.45;;
53391;SDS011;41667;51.922;8.850;2023-04-15T02:58:32;11.05;;;7.82;;
53391;SDS011;41667;51.922;8.850;2023-04-15T03:00:58;12.55;;;8.07;;
53391;SDS011;41667;51.922;8.850;2023-04-15T03:03:23;11.93;;;7.70;;
53391;SDS011;41667;51.922;8.850;2023-04-15T03:05:48;14.60;;;8.00;;
53391;SDS011;41667;51.922;8.850;2023-04-15T03:08:14;15.20;;;8.70;;
53391;SDS011;41667;51.922;8.850;2023-04-15T03:10:39;10.77;;;7.80;;
53391;SDS011;41667;51.922;8.850;2023-04-15T03:13:04;12.52;;;7.90;;
53391;SDS011;41667;51.922;8.850;2023-04-15T03:15:29;16.42;;;8.55;;
53391;SDS011;41667;51.922;8.850;2023-04-15T03:17:54;11.50;;;8.03;;
53391;SDS011;41667;51.922;8.850;2023-04-15T03:20:19;12.17;;;8.77;;
53391;SDS011;41667;51.922;8.850;2023-04-15T03:22:44;13.50;;;9.32;;
53391;SDS011;41667;51.922;8.850;2023-04-15T03:25:10;15.70;;;8.15;;
53391;SDS011;41667;51.922;8.850;2023-04-15T03:27:36;15.85;;;9.50;;
53391;SDS011;41667;51.922;8.850;2023-04-15T03:30:01;13.98;;;8.48;;
53391;SDS011;41667;51.922;8.850;2023-04-15T03:32:27;13.00;;;8.35;;
53391;SDS011;41667;51.922;8.850;2023-04-15T03:34:52;13.05;;;8.60;;
53391;SDS011;41667;51.922;8.850;2023-04-15T03:37:17;13.10;;;8.35;;
53391;SDS011;41667;51.922;8.850;2023-04-15T03:39:42;13.27;;;8.75;;
53391;SDS011;41667;51.922;8.850;2023-04-15T03:42:07;13.95;;;8.20;;
53391;SDS011;41667;51.922;8.850;2023-04-15T03:44:32;12.90;;;7.95;;
53391;SDS011;41667;51.922;8.850;2023-04-15T03:46:57;10.68;;;7.80;;
53391;SDS011;41667;51.922;8.850;2023-04-15T03:49:23;12.98;;;8.55;;
53391;SDS011;41667;51.922;8.850;2023-04-15T03:51:48;10.55;;;7.63;;
53391;SDS011;41667;51.922;8.850;2023-04-15T03:54:13;11.00;;;7.60;;
53391;SDS011;41667;51.922;8.850;2023-04-15T03:56:39;12.93;;;8.52;;
53391;SDS011;41667;51.922;8.850;2023-04-15T03:59:04;13.25;;;7.47;;
53391;SDS011;41667;51.922;8.850;2023-04-15T04:01:29;10.80;;;8.35;;
53391;SDS011;41667;51.922;8.850;2023-04-15T04:03:55;13.03;;;8.53;;
53391;SDS011;41667;51.922;8.850;2023-04-15T04:06:20;11.63;;;7.90;;
53391;SDS011;41667;51.922;8.850;2023-04-15T04:08:45;13.53;;;8.80;;
53391;SDS011;41667;51.922;8.850;2023-04-15T04:11:10;10.88;;;8.27;;
53391;SDS011;41667;51.922;8.850;2023-04-15T04:13:35;12.73;;;8.35;;
53391;SDS011;41667;51.922;8.850;2023-04-15T04:16:00;12.15;;;8.20;;
53391;SDS011;41667;51.922;8.850;2023-04-15T04:18:26;13.40;;;8.18;;
53391;SDS011;41667;51.922;8.850;2023-04-15T04:20:51;15.17;;;8.93;;
53391;SDS011;41667;51.922;8.850;2023-04-15T04:23:16;12.90;;;7.43;;
53391;SDS011;41667;51.922;8.850;2023-04-15T04:25:41;14.15;;;8.20;;
53391;SDS011;41667;51.922;8.850;2023-04-15T04:28:06;13.70;;;8.15;;
53391;SDS011;41667;51.922;8.850;2023-04-15T04:30:31;15.77;;;9.57;;
53391;SDS011;41667;51.922;8.850;2023-04-15T04:32:57;13.38;;;8.30;;
53391;SDS011;41667;51.922;8.850;2023-04-15T04:35:22;11.97;;;8.10;;
53391;SDS011;41667;51.922;8.850;2023-04-15T04:37:47;20.85;;;9.57;;
53391;SDS011;41667;51.922;8.850;2023-04-15T04:40:12;14.70;;;10.27;;
53391;SDS011;41667;51.922;8.850;2023-04-15T04:42:37;13.77;;;9.20;;
53391;SDS011;41667;51.922;8.850;2023-04-15T04:45:03;16.15;;;10.13;;
53391;SDS011;41667;51.922;8.850;2023-04-15T04:47:28;13.85;;;9.13;;
53391;SDS011;41667;51.922;8.850;2023-04-15T04:49:54;15.45;;;9.18;;
53391;SDS011;41667;51.922;8.850;2023-04-15T04:52:19;21.63;;;10.50;;
53391;SDS011;41667;51.922;8.850;2023-04-15T04:54:44;14.02;;;9.55;;
53391;SDS011;41667;51.922;8.850;2023-04-15T04:57:09;14.02;;;8.50;;
53391;SDS011;41667;51.922;8.850;2023-04-15T04:59:34;16.80;;;10.43;;
53391;SDS011;41667;51.922;8.850;2023-04-15T05:02:00;14.20;;;9.48;;
53391;SDS011;41667;51.922;8.850;2023-04-15T05:04:25;15.37;;;9.23;;
53391;SDS011;41667;51.922;8.850;2023-04-15T05:06:50;18.02;;;9.60;;
53391;SDS011;41667;51.922;8.850;2023-04-15T05:09:15;15.65;;;9.90;;
53391;SDS011;41667;51.922;8.850;2023-04-15T05:11:41;17.43;;;9.10;;
53391;SDS011;41667;51.922;8.850;2023-04-15T05:14:06;15.30;;;10.63;;
53391;SDS011;41667;51.922;8.850;2023-04-15T05:16:31;17.45;;;10.18;;
53391;SDS011;41667;51.922;8.850;2023-04-15T05:18:56;12.18;;;8.98;;
53391;SDS011;41667;51.922;8.850;2023-04-15T05:21:21;13.25;;;9.10;;
53391;SDS011;41667;51.922;8.850;2023-04-15T05:23:47;15.48;;;9.43;;
53391;SDS011;41667;51.922;8.850;2023-04-15T05:26:12;14.63;;;9.80;;
53391;SDS011;41667;51.922;8.850;2023-04-15T05:28:37;15.93;;;9.95;;
53391;SDS011;41667;51.922;8.850;2023-04-15T05:31:02;16.67;;;8.70;;
53391;SDS011;41667;51.922;8.850;2023-04-15T05:33:27;18.13;;;9.85;;
53391;SDS011;41667;51.922;8.850;2023-04-15T05:35:53;16.05;;;9.75;;
53391;SDS011;41667;51.922;8.850;2023-04-15T05:38:18;15.45;;;9.20;;
53391;SDS011;41667;51.922;8.850;2023-04-15T05:40:43;14.38;;;9.27;;
53391;SDS011;41667;51.922;8.850;2023-04-15T05:43:08;15.30;;;9.38;;
53391;SDS011;41667;51.922;8.850;2023-04-15T05:45:33;14.98;;;9.75;;
53391;SDS011;41667;51.922;8.850;2023-04-15T05:47:58;14.37;;;10.07;;
53391;SDS011;41667;51.922;8.850;2023-04-15T05:50:23;19.70;;;9.97;;
53391;SDS011;41667;51.922;8.850;2023-04-15T05:52:49;16.17;;;9.85;;
53391;SDS011;41667;51.922;8.850;2023-04-15T05:55:14;13.67;;;9.63;;
53391;SDS011;41667;51.922;8.850;2023-04-15T05:57:39;21.10;;;9.43;;
53391;SDS011;41667;51.922;8.850;2023-04-15T06:00:04;20.42;;;10.35;;
53391;SDS011;41667;51.922;8.850;2023-04-15T06:02:30;14.48;;;8.77;;
53391;SDS011;41667;51.922;8.850;2023-04-15T06:04:55;15.95;;;9.45;;
53391;SDS011;41667;51.922;8.850;2023-04-15T06:07:21;16.48;;;10.50;;
53391;SDS011;41667;51.922;8.850;2023-04-15T06:09:46;17.60;;;10.10;;
53391;SDS011;41667;51.922;8.850;2023-04-15T06:12:11;16.73;;;10.23;;
53391;SDS011;41667;51.922;8.850;2023-04-15T06:14:37;15.55;;;9.82;;
53391;SDS011;41667;51.922;8.850;2023-04-15T06:17:02;19.70;;;10.27;;
53391;SDS011;41667;51.922;8.850;2023-04-15T06:19:28;17.17;;;10.10;;
53391;SDS011;41667;51.922;8.850;2023-04-15T06:21:53;15.75;;;9.48;;
53391;SDS011;41667;51.922;8.850;2023-04-15T06:24:18;15.93;;;9.18;;
53391;SDS011;41667;51.922;8.850;2023-04-15T06:26:43;17.00;;;10.23;;
53391;SDS011;41667;51.922;8.850;2023-04-15T06:29:08;15.85;;;10.05;;
53391;SDS011;41667;51.922;8.850;2023-04-15T06:31:34;21.60;;;11.27;;
53391;SDS011;41667;51.922;8.850;2023-04-15T06:33:59;21.42;;;11.25;;
53391;SDS011;41667;51.922;8.850;2023-04-15T06:36:24;17.60;;;11.20;;
53391;SDS011;41667;51.922;8.850;2023-04-15T06:38:50;16.40;;;10.52;;
53391;SDS011;41667;51.922;8.850;2023-04-15T06:41:15;21.13;;;11.00;;
53391;SDS011;41667;51.922;8.850;2023-04-15T06:43:40;23.40;;;10.93;;
53391;SDS011;41667;51.922;8.850;2023-04-15T06:46:06;20.70;;;11.70;;
53391;SDS011;41667;51.922;8.850;2023-04-15T06:48:31;22.00;;;10.93;;
53391;SDS011;41667;51.922;8.850;2023-04-15T06:50:56;20.58;;;12.07;;
53391;SDS011;41667;51.922;8.850;2023-04-15T06:53:23;17.05;;;11.07;;
53391;SDS011;41667;51.922;8.850;2023-04-15T06:55:49;19.33;;;11.30;;
53391;SDS011;41667;51.922;8.850;2023-04-15T06:58:14;18.15;;;11.25;;
53391;SDS011;41667;51.922;8.850;2023-04-15T07:00:39;21.73;;;11.65;;
53391;SDS011;41667;51.922;8.850;2023-04-15T07:03:04;20.30;;;11.35;;
53391;SDS011;41667;51.922;8.850;2023-04-15T07:05:30;23.37;;;12.87;;
53391;SDS011;41667;51.922;8.850;2023-04-15T07:07:56;22.15;;;12.52;;
53391;SDS011;41667;51.922;8.850;2023-04-15T07:10:21;22.52;;;12.13;;
53391;SDS011;41667;51.922;8.850;2023-04-15T07:12:47;21.77;;;13.02;;
53391;SDS011;41667;51.922;8.850;2023-04-15T07:15:12;24.27;;;13.63;;
53391;SDS011;41667;51.922;8.850;2023-04-15T07:17:37;23.05;;;11.95;;
53391;SDS011;41667;51.922;8.850;2023-04-15T07:20:02;24.63;;;13.40;;
53391;SDS011;41667;51.922;8.850;2023-04-15T07:22:28;23.90;;;13.18;;
53391;SDS011;41667;51.922;8.850;2023-04-15T07:24:54;26.42;;;13.52;;
53391;SDS011;41667;51.922;8.850;2023-04-15T07:27:19;22.13;;;13.18;;
53391;SDS011;41667;51.922;8.850;2023-04-15T07:29:44;18.63;;;10.73;;
53391;SDS011;41667;51.922;8.850;2023-04-15T07:32:10;22.08;;;11.80;;
53391;SDS011;41667;51.922;8.850;2023-04-15T07:34:35;24.48;;;13.07;;
53391;SDS011;41667;51.922;8.850;2023-04-15T07:37:00;18.73;;;11.05;;
53391;SDS011;41667;51.922;8.850;2023-04-15T07:39:25;20.40;;;11.10;;
53391;SDS011;41667;51.922;8.850;2023-04-15T07:41:51;21.70;;;11.77;;
53391;SDS011;41667;51.922;8.850;2023-04-15T07:44:16;22.40;;;13.63;;
53391;SDS011;41667;51.922;8.850;2023-04-15T07:46:41;16.17;;;10.10;;
53391;SDS011;41667;51.922;8.850;2023-04-15T07:49:06;21.27;;;10.55;;
53391;SDS011;41667;51.922;8.850;2023-04-15T07:51:31;15.60;;;9.47;;
53391;SDS011;41667;51.922;8.850;2023-04-15T07:53:57;16.40;;;8.82;;
53391;SDS011;41667;51.922;8.850;2023-04-15T07:56:22;15.32;;;8.90;;
53391;SDS011;41667;51.922;8.850;2023-04-15T07:58:47;17.13;;;9.32;;
53391;SDS011;41667;51.922;8.850;2023-04-15T08:01:12;16.42;;;9.60;;
53391;SDS011;41667;51.922;8.850;2023-04-15T08:03:38;14.87;;;8.70;;
53391;SDS011;41667;51.922;8.850;2023-04-15T08:06:03;16.08;;;8.23;;
53391;SDS011;41667;51.922;8.850;2023-04-15T08:08:28;16.10;;;9.33;;
53391;SDS011;41667;51.922;8.850;2023-04-15T08:10:53;16.15;;;9.68;;
53391;SDS011;41667;51.922;8.850;2023-04-15T08:13:18;18.77;;;9.73;;
53391;SDS011;41667;51.922;8.850;2023-04-15T08:15:44;12.70;;;8.05;;
53391;SDS011;41667;51.922;8.850;2023-04-15T08:18:09;15.40;;;8.15;;
53391;SDS011;41667;51.922;8.850;2023-04-15T08:20:35;14.27;;;8.10;;
53391;SDS011;41667;51.922;8.850;2023-04-15T08:23:00;16.02;;;9.23;;
53391;SDS011;41667;51.922;8.850;2023-04-15T08:25:25;13.98;;;8.50;;
53391;SDS011;41667;51.922;8.850;2023-04-15T08:27:51;16.25;;;7.68;;
53391;SDS011;41667;51.922;8.850;2023-04-15T08:30:16;14.90;;;7.97;;
53391;SDS011;41667;51.922;8.850;2023-04-15T08:32:44;13.73;;;7.60;;
53391;SDS011;41667;51.922;8.850;2023-04-15T08:35:10;17.13;;;8.68;;
53391;SDS011;41667;51.922;8.850;2023-04-15T08:37:36;17.15;;;7.60;;
53391;SDS011;41667;51.922;8.850;2023-04-15T08:40:01;12.53;;;7.33;;
53391;SDS011;41667;51.922;8.850;2023-04-15T08:42:27;14.68;;;8.13;;
53391;SDS011;41667;51.922;8.850;2023-04-15T08:44:55;16.63;;;8.55;;
53391;SDS011;41667;51.922;8.850;2023-04-15T08:47:20;13.88;;;7.45;;
53391;SDS011;41667;51.922;8.850;2023-04-15T08:49:46;14.50;;;8.35;;
53391;SDS011;41667;51.922;8.850;2023-04-15T08:52:17;13.07;;;7.38;;
53391;SDS011;41667;51.922;8.850;2023-04-15T08:54:43;10.48;;;6.38;;
53391;SDS011;41667;51.922;8.850;2023-04-15T08:57:08;14.13;;;7.37;;
53391;SDS011;41667;51.922;8.850;2023-04-15T08:59:33;15.82;;;6.75;;
53391;SDS011;41667;51.922;8.850;2023-04-15T09:01:59;11.52;;;6.45;;
53391;SDS011;41667;51.922;8.850;2023-04-15T09:04:25;13.20;;;6.63;;
53391;SDS011;41667;51.922;8.850;2023-04-15T09:06:50;14.87;;;7.07;;
53391;SDS011;41667;51.922;8.850;2023-04-15T09:09:16;17.48;;;7.53;;
53391;SDS011;41667;51.922;8.850;2023-04-15T09:11:41;12.45;;;7.28;;
53391;SDS011;41667;51.922;8.850;2023-04-15T09:14:06;11.25;;;5.95;;
53391;SDS011;41667;51.922;8.850;2023-04-15T09:16:53;10.00;;;6.07;;
53391;SDS011;41667;51.922;8.850;2023-04-15T09:19:21;12.05;;;6.80;;
53391;SDS011;41667;51.922;8.850;2023-04-15T09:21:47;12.82;;;6.60;;
53391;SDS011;41667;51.922;8.850;2023-04-15T09:24:12;12.17;;;6.80;;
53391;SDS011;41667;51.922;8.850;2023-04-15T09:26:37;13.13;;;7.43;;
53391;SDS011;41667;51.922;8.850;2023-04-15T09:29:08;14.00;;;7.55;;
53391;SDS011;41667;51.922;8.850;2023-04-15T09:31:33;12.00;;;7.30;;
53391;SDS011;41667;51.922;8.850;2023-04-15T09:33:58;9.95;;;5.50;;
53391;SDS011;41667;51.922;8.850;2023-04-15T09:36:24;12.43;;;7.65;;
53391;SDS011;41667;51.922;8.850;2023-04-15T09:38:53;11.93;;;7.05;;
53391;SDS011;41667;51.922;8.850;2023-04-15T09:41:18;13.70;;;6.45;;
53391;SDS011;41667;51.922;8.850;2023-04-15T09:43:43;11.80;;;6.43;;
53391;SDS011;41667;51.922;8.850;2023-04-15T09:46:08;10.23;;;5.60;;
53391;SDS011;41667;51.922;8.850;2023-04-15T09:48:34;11.85;;;6.30;;
53391;SDS011;41667;51.922;8.850;2023-04-15T09:51:00;10.70;;;5.80;;
53391;SDS011;41667;51.922;8.850;2023-04-15T09:53:26;9.23;;;5.75;;
53391;SDS011;41667;51.922;8.850;2023-04-15T09:55:52;11.98;;;6.75;;
53391;SDS011;41667;51.922;8.850;2023-04-15T09:58:22;14.32;;;6.03;;
53391;SDS011;41667;51.922;8.850;2023-04-15T10:00:47;11.00;;;6.75;;
53391;SDS011;41667;51.922;8.850;2023-04-15T10:03:18;11.63;;;6.47;;
53391;SDS011;41667;51.922;8.850;2023-04-15T10:05:43;13.55;;;6.57;;
53391;SDS011;41667;51.922;8.850;2023-04-15T10:08:09;13.32;;;7.47;;
53391;SDS011;41667;51.922;8.850;2023-04-15T10:10:34;11.23;;;6.32;;
53391;SDS011;41667;51.922;8.850;2023-04-15T10:13:00;8.73;;;5.95;;
53391;SDS011;41667;51.922;8.850;2023-04-15T10:15:26;11.38;;;6.03;;
53391;SDS011;41667;51.922;8.850;2023-04-15T10:17:52;10.52;;;6.43;;
53391;SDS011;41667;51.922;8.850;2023-04-15T10:20:18;9.48;;;5.70;;
53391;SDS011;41667;51.922;8.850;2023-04-15T10:22:44;10.88;;;6.00;;
53391;SDS011;41667;51.922;8.850;2023-04-15T10:25:10;7.25;;;5.15;;
53391;SDS011;41667;51.922;8.850;2023-04-15T10:27:36;9.85;;;6.40;;
53391;SDS011;41667;51.922;8.850;2023-04-15T10:30:01;9.90;;;6.00;;
53391;SDS011;41667;51.922;8.850;2023-04-15T10:32:27;10.45;;;5.82;;
53391;SDS011;41667;51.922;8.850;2023-04-15T10:34:53;11.23;;;5.57;;
53391;SDS011;41667;51.922;8.850;2023-04-15T10:37:20;9.40;;;6.10;;
53391;SDS011;41667;51.922;8.850;2023-04-15T10:39:45;11.05;;;5.65;;
53391;SDS011;41667;51.922;8.850;2023-04-15T10:42:14;9.65;;;5.38;;
53391;SDS011;41667;51.922;8.850;2023-04-15T10:44:43;9.90;;;6.15;;
53391;SDS011;41667;51.922;8.850;2023-04-15T10:47:09;8.52;;;5.35;;
53391;SDS011;41667;51.922;8.850;2023-04-15T10:49:35;9.10;;;5.55;;
53391;SDS011;41667;51.922;8.850;2023-04-15T10:52:06;9.07;;;6.07;;
53391;SDS011;41667;51.922;8.850;2023-04-15T10:54:32;8.43;;;5.78;;
53391;SDS011;41667;51.922;8.850;2023-04-15T10:59:32;11.48;;;6.53;;
53391;SDS011;41667;51.922;8.850;2023-04-15T11:02:00;9.18;;;5.88;;
53391;SDS011;41667;51.922;8.850;2023-04-15T11:07:09;9.15;;;5.85;;
53391;SDS011;41667;51.922;8.850;2023-04-15T11:09:35;8.05;;;4.97;;
53391;SDS011;41667;51.922;8.850;2023-04-15T11:12:04;10.95;;;6.75;;
53391;SDS011;41667;51.922;8.850;2023-04-15T11:14:31;9.93;;;6.28;;
53391;SDS011;41667;51.922;8.850;2023-04-15T11:16:56;8.73;;;5.70;;
53391;SDS011;41667;51.922;8.850;2023-04-15T11:19:22;10.65;;;6.00;;
53391;SDS011;41667;51.922;8.850;2023-04-15T11:21:47;10.20;;;7.00;;
53391;SDS011;41667;51.922;8.850;2023-04-15T11:24:22;11.20;;;6.67;;
53391;SDS011;41667;51.922;8.850;2023-04-15T11:26:50;7.78;;;5.63;;
53391;SDS011;41667;51.922;8.850;2023-04-15T11:29:18;10.20;;;5.78;;
53391;SDS011;41667;51.922;8.850;2023-04-15T11:31:45;7.40;;;5.65;;
53391;SDS011;41667;51.922;8.850;2023-04-15T11:34:13;8.93;;;5.72;;
53391;SDS011;41667;51.922;8.850;2023-04-15T11:36:46;9.20;;;5.43;;
53391;SDS011;41667;51.922;8.850;2023-04-15T11:39:12;10.60;;;6.03;;
53391;SDS011;41667;51.922;8.850;2023-04-15T11:41:37;8.93;;;5.82;;
53391;SDS011;41667;51.922;8.850;2023-04-15T11:44:02;10.32;;;6.18;;
53391;SDS011;41667;51.922;8.850;2023-04-15T11:46:28;8.07;;;6.40;;
53391;SDS011;41667;51.922;8.850;2023-04-15T11:48:53;8.88;;;5.45;;
53391;SDS011;41667;51.922;8.850;2023-04-15T11:51:19;9.50;;;6.35;;
53391;SDS011;41667;51.922;8.850;2023-04-15T11:53:46;9.30;;;6.05;;
53391;SDS011;41667;51.922;8.850;2023-04-15T11:56:18;8.95;;;5.47;;
53391;SDS011;41667;51.922;8.850;2023-04-15T11:58:45;10.32;;;6.03;;
53391;SDS011;41667;51.922;8.850;2023-04-15T12:01:10;7.22;;;5.30;;
53391;SDS011;41667;51.922;8.850;2023-04-15T12:03:36;9.50;;;6.00;;
53391;SDS011;41667;51.922;8.850;2023-04-15T12:11:14;9.90;;;5.68;;
53391;SDS011;41667;51.922;8.850;2023-04-15T12:13:43;6.10;;;4.95;;
53391;SDS011;41667;51.922;8.850;2023-04-15T12:16:08;7.57;;;5.10;;
53391;SDS011;41667;51.922;8.850;2023-04-15T12:18:33;7.47;;;4.90;;
53391;SDS011;41667;51.922;8.850;2023-04-15T12:21:10;8.43;;;5.53;;
53391;SDS011;41667;51.922;8.850;2023-04-15T12:23:36;7.05;;;5.70;;
53391;SDS011;41667;51.922;8.850;2023-04-15T12:26:04;8.52;;;5.07;;
53391;SDS011;41667;51.922;8.850;2023-04-15T12:28:29;8.52;;;5.00;;
53391;SDS011;41667;51.922;8.850;2023-04-15T12:30:54;7.20;;;5.38;;
53391;SDS011;41667;51.922;8.850;2023-04-15T12:33:19;8.27;;;5.60;;
53391;SDS011;41667;51.922;8.850;2023-04-15T12:35:45;6.43;;;4.50;;
53391;SDS011;41667;51.922;8.850;2023-04-15T12:38:10;6.65;;;5.38;;
53391;SDS011;41667;51.922;8.850;2023-04-15T12:40:35;6.70;;;4.50;;
53391;SDS011;41667;51.922;8.850;2023-04-15T12:43:00;5.78;;;4.57;;
53391;SDS011;41667;51.922;8.850;2023-04-15T12:45:25;6.77;;;4.80;;
53391;SDS011;41667;51.922;8.850;2023-04-15T12:47:51;5.50;;;4.97;;
53391;SDS011;41667;51.922;8.850;2023-04-15T12:50:16;6.57;;;4.67;;
53391;SDS011;41667;51.922;8.850;2023-04-15T12:52:42;6.38;;;4.63;;
53391;SDS011;41667;51.922;8.850;2023-04-15T12:55:07;8.05;;;5.47;;
53391;SDS011;41667;51.922;8.850;2023-04-15T12:57:32;7.85;;;5.30;;
53391;SDS011;41667;51.922;8.850;2023-04-15T12:59:57;6.07;;;4.83;;
53391;SDS011;41667;51.922;8.850;2023-04-15T13:02:23;8.57;;;4.50;;
53391;SDS011;41667;51.922;8.850;2023-04-15T13:04:49;6.65;;;5.05;;
53391;SDS011;41667;51.922;8.850;2023-04-15T13:07:14;5.65;;;4.90;;
53391;SDS011;41667;51.922;8.850;2023-04-15T13:09:39;5.88;;;4.47;;
53391;SDS011;41667;51.922;8.850;2023-04-15T13:12:04;7.97;;;4.72;;
53391;SDS011;41667;51.922;8.850;2023-04-15T13:14:30;6.07;;;4.15;;
53391;SDS011;41667;51.922;8.850;2023-04-15T13:16:55;6.95;;;5.05;;
53391;SDS011;41667;51.922;8.850;2023-04-15T13:19:20;6.32;;;5.22;;
53391;SDS011;41667;51.922;8.850;2023-04-15T13:21:46;7.57;;;4.70;;
53391;SDS011;41667;51.922;8.850;2023-04-15T13:24:11;7.45;;;5.18;;
53391;SDS011;41667;51.922;8.850;2023-04-15T13:26:36;7.45;;;4.97;;
53391;SDS011;41667;51.922;8.850;2023-04-15T13:29:01;8.68;;;5.75;;
53391;SDS011;41667;51.922;8.850;2023-04-15T13:31:26;7.20;;;5.60;;
53391;SDS011;41667;51.922;8.850;2023-04-15T13:33:52;9.80;;;6.53;;
53391;SDS011;41667;51.922;8.850;2023-04-15T13:36:18;7.18;;;5.05;;
53391;SDS011;41667;51.922;8.850;2023-04-15T13:38:43;8.93;;;6.32;;
53391;SDS011;41667;51.922;8.850;2023-04-15T13:41:08;11.07;;;6.55;;
53391;SDS011;41667;51.922;8.850;2023-04-15T13:43:33;10.90;;;6.70;;
53391;SDS011;41667;51.922;8.850;2023-04-15T13:45:58;9.07;;;6.43;;
53391;SDS011;41667;51.922;8.850;2023-04-15T13:48:24;9.50;;;6.33;;
53391;SDS011;41667;51.922;8.850;2023-04-15T13:50:49;11.38;;;6.70;;
53391;SDS011;41667;51.922;8.850;2023-04-15T13:53:14;9.35;;;7.05;;
53391;SDS011;41667;51.922;8.850;2023-04-15T13:55:39;10.70;;;7.18;;
53391;SDS011;41667;51.922;8.850;2023-04-15T13:58:06;14.98;;;7.50;;
53391;SDS011;41667;51.922;8.850;2023-04-15T14:00:32;10.68;;;7.63;;
53391;SDS011;41667;51.922;8.850;2023-04-15T14:02:57;14.50;;;8.15;;
53391;SDS011;41667;51.922;8.850;2023-04-15T14:05:22;15.95;;;8.80;;
53391;SDS011;41667;51.922;8.850;2023-04-15T14:07:47;14.25;;;9.05;;
53391;SDS011;41667;51.922;8.850;2023-04-15T14:10:12;19.73;;;8.75;;
53391;SDS011;41667;51.922;8.850;2023-04-15T14:12:37;16.95;;;9.48;;
53391;SDS011;41667;51.922;8.850;2023-04-15T14:15:02;15.80;;;9.02;;
53391;SDS011;41667;51.922;8.850;2023-04-15T14:17:28;15.07;;;8.60;;
53391;SDS011;41667;51.922;8.850;2023-04-15T14:19:53;19.70;;;9.93;;
53391;SDS011;41667;51.922;8.850;2023-04-15T14:22:18;18.07;;;10.27;;
53391;SDS011;41667;51.922;8.850;2023-04-15T14:24:43;19.02;;;9.60;;
53391;SDS011;41667;51.922;8.850;2023-04-15T14:27:09;21.02;;;9.00;;
53391;SDS011;41667;51.922;8.850;2023-04-15T14:29:36;17.23;;;8.90;;
53391;SDS011;41667;51.922;8.850;2023-04-15T14:32:01;16.25;;;8.93;;
53391;SDS011;41667;51.922;8.850;2023-04-15T14:34:26;17.35;;;10.00;;
53391;SDS011;41667;51.922;8.850;2023-04-15T14:36:51;20.87;;;10.50;;
53391;SDS011;41667;51.922;8.850;2023-04-15T14:39:17;20.27;;;10.07;;